createdAt,value
2023-03-11T00:02:10.944Z,6.13
2023-03-11T00:04:38.010Z,5.00
2023-03-11T00:07:06.430Z,4.72
2023-03-11T00:09:33.749Z,6.95
2023-03-11T00:12:00.729Z,6.00
2023-03-11T00:14:27.696Z,4.03
2023-03-11T00:16:55.904Z,4.80
2023-03-11T00:19:22.901Z,6.22
2023-03-11T00:21:49.654Z,4.55
2023-03-11T00:24:18.812Z,5.13
2023-03-11T00:26:45.538Z,6.23
2023-03-11T00:29:12.230Z,4.20
2023-03-11T00:31:38.993Z,3.95
2023-03-11T00:34:06.989Z,4.78
2023-03-11T00:36:33.899Z,5.57
2023-03-11T00:39:01.623Z,7.50
2023-03-11T00:41:28.569Z,5.95
2023-03-11T00:43:55.246Z,5.38
2023-03-11T00:46:21.953Z,7.00
2023-03-11T00:48:50.541Z,7.18
2023-03-11T00:51:19.083Z,11.13
2023-03-11T00:53:46.336Z,8.88
2023-03-11T00:56:14.826Z,6.40
2023-03-11T00:58:43.425Z,4.80
2023-03-11T01:01:11.103Z,4.88
2023-03-11T01:03:38.705Z,3.83
2023-03-11T01:06:05.915Z,3.20
2023-03-11T01:08:34.420Z,3.78
2023-03-11T01:11:01.268Z,4.03
2023-03-11T01:13:29.453Z,3.63
2023-03-11T01:15:57.310Z,4.03
2023-03-11T01:18:25.315Z,4.05
2023-03-11T01:20:52.244Z,3.45
2023-03-11T01:23:20.047Z,4.60
2023-03-11T01:25:48.194Z,4.50
2023-03-11T01:28:17.716Z,6.63
2023-03-11T01:30:45.111Z,4.50
2023-03-11T01:33:16.241Z,4.55
2023-03-11T01:35:43.330Z,3.85
2023-03-11T01:38:10.826Z,3.13
2023-03-11T01:40:40.374Z,3.50
2023-03-11T01:43:39.761Z,3.45
2023-03-11T01:46:10.763Z,3.42
2023-03-11T01:48:37.386Z,3.13
2023-03-11T01:51:05.174Z,3.55
2023-03-11T01:53:32.951Z,3.60
2023-03-11T01:56:01.180Z,2.40
2023-03-11T01:58:34.475Z,3.60
2023-03-11T02:01:02.620Z,2.97
2023-03-11T02:03:32.074Z,5.32
2023-03-11T02:06:01.989Z,3.07
2023-03-11T02:08:28.953Z,2.47
2023-03-11T02:10:56.853Z,3.40
2023-03-11T02:13:23.804Z,4.13
2023-03-11T02:15:52.209Z,2.50
2023-03-11T02:18:19.432Z,2.73
2023-03-11T02:20:51.329Z,3.67
2023-03-11T02:23:19.898Z,4.25
2023-03-11T02:25:54.547Z,3.15
2023-03-11T02:28:24.000Z,3.20
2023-03-11T02:30:52.072Z,3.30
2023-03-11T02:33:19.351Z,3.42
2023-03-11T02:35:46.132Z,3.60
2023-03-11T02:38:12.814Z,2.40
2023-03-11T02:40:49.794Z,3.60
2023-03-11T02:43:19.548Z,2.67
2023-03-11T02:45:49.497Z,2.88
2023-03-11T02:48:17.358Z,3.33
2023-03-11T02:50:45.924Z,2.95
2023-03-11T02:53:12.615Z,3.15
2023-03-11T02:55:39.301Z,4.23
2023-03-11T02:58:05.950Z,2.78
2023-03-11T03:00:32.715Z,7.25
2023-03-11T03:03:00.952Z,2.85
2023-03-11T03:05:28.115Z,4.18
2023-03-11T03:07:54.833Z,5.30
2023-03-11T03:10:22.646Z,4.35
2023-03-11T03:12:49.405Z,5.15
2023-03-11T03:15:16.360Z,3.85
2023-03-11T03:17:43.132Z,3.42
2023-03-11T03:20:12.476Z,3.57
2023-03-11T03:22:39.450Z,3.20
2023-03-11T03:25:07.372Z,4.95
2023-03-11T03:27:34.670Z,3.78
2023-03-11T03:30:01.368Z,2.35
2023-03-11T03:32:28.208Z,3.10
2023-03-11T03:34:54.966Z,3.80
2023-03-11T03:37:22.944Z,4.10
2023-03-11T03:39:49.558Z,3.90
2023-03-11T03:42:16.150Z,3.92
2023-03-11T03:44:42.819Z,3.27
2023-03-11T03:47:09.458Z,3.10
2023-03-11T03:49:36.167Z,3.10
2023-03-11T03:52:04.764Z,3.83
2023-03-11T03:54:32.893Z,3.00
2023-03-11T03:56:59.544Z,3.87
2023-03-11T03:59:26.167Z,3.17
2023-03-11T04:01:52.880Z,4.55
2023-03-11T04:04:19.600Z,3.20
2023-03-11T04:06:46.344Z,3.70
2023-03-11T04:09:13.447Z,3.80
2023-03-11T04:11:41.464Z,3.25
2023-03-11T04:14:08.135Z,4.10
2023-03-11T04:16:34.840Z,3.58
2023-03-11T04:19:01.608Z,3.13
2023-03-11T04:21:28.344Z,3.40
2023-03-11T04:23:54.986Z,3.53
2023-03-11T04:26:21.682Z,4.00
2023-03-11T04:28:49.788Z,3.70
2023-03-11T04:31:16.573Z,3.20
2023-03-11T04:33:43.239Z,3.60
2023-03-11T04:36:10.465Z,4.60
2023-03-11T04:38:37.124Z,3.55
2023-03-11T04:41:05.036Z,4.15
2023-03-11T04:43:32.557Z,3.63
2023-03-11T04:46:00.614Z,4.03
2023-03-11T04:48:27.299Z,4.00
2023-03-11T04:50:54.305Z,3.88
2023-03-11T04:53:21.047Z,4.50
2023-03-11T04:55:47.742Z,4.45
2023-03-11T04:58:14.561Z,3.87
2023-03-11T05:00:41.186Z,4.10
2023-03-11T05:03:09.189Z,3.65
2023-03-11T05:05:35.821Z,3.80
2023-03-11T05:08:02.776Z,3.13
2023-03-11T05:10:31.769Z,3.50
2023-03-11T05:12:59.271Z,4.15
2023-03-11T05:15:26.023Z,3.75
2023-03-11T05:17:52.674Z,3.95
2023-03-11T05:20:20.837Z,4.47
2023-03-11T05:22:47.487Z,3.33
2023-03-11T05:25:14.110Z,3.85
2023-03-11T05:27:40.991Z,4.63
2023-03-11T05:30:09.927Z,4.28
2023-03-11T05:32:36.742Z,6.60
2023-03-11T05:35:03.765Z,6.00
2023-03-11T05:37:34.356Z,5.85
2023-03-11T05:40:01.303Z,4.75
2023-03-11T05:42:27.968Z,3.38
2023-03-11T05:44:54.669Z,5.15
2023-03-11T05:47:21.302Z,4.03
2023-03-11T05:49:48.007Z,2.95
2023-03-11T05:52:14.979Z,4.43
2023-03-11T05:54:43.347Z,3.53
2023-03-11T05:57:09.986Z,3.28
2023-03-11T05:59:36.637Z,3.83
2023-03-11T06:02:03.510Z,3.17
2023-03-11T06:04:30.350Z,7.07
2023-03-11T06:06:57.067Z,4.35
2023-03-11T06:09:23.759Z,4.90
2023-03-11T06:11:51.963Z,4.27
2023-03-11T06:14:18.675Z,5.60
2023-03-11T06:16:45.544Z,5.80
2023-03-11T06:19:12.296Z,6.00
2023-03-11T06:21:38.892Z,6.65
2023-03-11T06:24:06.557Z,4.43
2023-03-11T06:26:33.277Z,5.22
2023-03-11T06:29:01.346Z,4.82
2023-03-11T06:31:29.163Z,4.68
2023-03-11T06:33:56.377Z,5.75
2023-03-11T06:36:23.749Z,4.70
2023-03-11T06:38:51.978Z,3.85
2023-03-11T06:41:18.700Z,3.45
2023-03-11T06:43:48.115Z,3.88
2023-03-11T06:46:18.862Z,3.45
2023-03-11T06:48:45.829Z,3.40
2023-03-11T06:51:13.466Z,4.45
2023-03-11T06:53:40.497Z,4.75
2023-03-11T06:56:09.925Z,3.80
2023-03-11T06:58:37.950Z,5.32
2023-03-11T07:01:08.466Z,6.53
2023-03-11T07:03:36.631Z,5.15
2023-03-11T07:06:06.564Z,6.10
2023-03-11T07:08:33.331Z,6.70
2023-03-11T07:11:02.386Z,5.60
2023-03-11T07:13:29.324Z,5.80
2023-03-11T07:16:04.178Z,5.57
2023-03-11T07:18:31.334Z,4.82
2023-03-11T07:20:59.324Z,5.35
2023-03-11T07:23:25.996Z,6.80
2023-03-11T07:25:52.657Z,7.03
2023-03-11T07:28:19.293Z,4.68
2023-03-11T07:30:45.955Z,8.15
2023-03-11T07:33:12.913Z,6.32
2023-03-11T07:35:39.640Z,4.22
2023-03-11T07:38:08.024Z,6.20
2023-03-11T07:40:34.733Z,5.40
2023-03-11T07:43:01.399Z,3.97
2023-03-11T07:45:28.188Z,3.72
2023-03-11T07:47:54.884Z,4.28
2023-03-11T07:50:21.531Z,3.88
2023-03-11T07:52:48.534Z,5.63
2023-03-11T07:55:16.621Z,4.00
2023-03-11T07:57:43.365Z,3.65
2023-03-11T08:00:11.444Z,3.30
2023-03-11T08:02:38.238Z,3.97
2023-03-11T08:05:05.454Z,4.00
2023-03-11T08:07:32.583Z,5.32
2023-03-11T08:09:59.331Z,4.57
2023-03-11T08:12:27.554Z,3.60
2023-03-11T08:14:54.329Z,3.72
2023-03-11T08:17:20.989Z,3.47
2023-03-11T08:19:49.248Z,5.22
2023-03-11T08:22:15.884Z,4.90
2023-03-11T08:24:42.593Z,3.70
2023-03-11T08:27:09.272Z,5.07
2023-03-11T08:29:37.523Z,4.22
2023-03-11T08:32:04.680Z,3.97
2023-03-11T08:34:31.343Z,2.72
2023-03-11T08:36:58.088Z,3.78
2023-03-11T08:39:24.820Z,6.15
2023-03-11T08:41:51.436Z,5.07
2023-03-11T08:44:18.072Z,5.00
2023-03-11T08:46:46.245Z,3.03
2023-03-11T08:49:13.009Z,3.25
2023-03-11T08:51:39.704Z,2.75
2023-03-11T08:54:06.553Z,3.28
2023-03-11T08:56:33.213Z,3.20
2023-03-11T08:58:59.860Z,3.95
2023-03-11T09:01:26.657Z,4.88
2023-03-11T09:03:54.846Z,5.37
2023-03-11T09:06:23.610Z,3.25
2023-03-11T09:08:50.653Z,5.18
2023-03-11T09:11:18.863Z,4.43
2023-03-11T09:13:45.832Z,3.67
2023-03-11T09:16:14.017Z,3.60
2023-03-11T09:18:40.845Z,4.13
2023-03-11T09:21:09.399Z,3.83
2023-03-11T09:23:36.143Z,3.15
2023-03-11T09:26:02.849Z,4.53
2023-03-11T09:28:29.472Z,3.33
2023-03-11T09:30:56.756Z,2.33
2023-03-11T09:33:23.492Z,3.35
2023-03-11T09:35:50.315Z,3.58
2023-03-11T09:38:18.380Z,2.90
2023-03-11T09:40:56.442Z,1.60
2023-03-11T09:43:42.800Z,3.33
2023-03-11T09:46:27.351Z,4.57
2023-03-11T09:48:59.818Z,4.70
2023-03-11T09:51:29.893Z,3.15
2023-03-11T09:54:03.375Z,3.47
2023-03-11T09:56:31.529Z,2.47
2023-03-11T09:59:02.555Z,1.52
2023-03-11T10:01:32.148Z,5.50
2023-03-11T10:04:04.866Z,2.97
2023-03-11T10:06:31.947Z,2.30
2023-03-11T10:09:05.947Z,3.03
2023-03-11T10:11:55.652Z,3.08
2023-03-11T10:14:37.723Z,3.10
2023-03-11T10:17:15.019Z,2.22
2023-03-11T10:19:48.721Z,2.83
2023-03-11T10:22:25.570Z,4.88
2023-03-11T10:25:03.193Z,5.18
2023-03-11T10:27:35.036Z,3.50
2023-03-11T10:30:09.081Z,4.68
2023-03-11T10:32:41.143Z,2.13
2023-03-11T10:35:16.981Z,3.35
2023-03-11T10:37:50.248Z,2.25
2023-03-11T10:40:26.708Z,4.22
2023-03-11T10:42:55.439Z,2.80
2023-03-11T10:45:22.521Z,2.78
2023-03-11T10:47:49.277Z,4.88
2023-03-11T10:50:17.478Z,4.18
2023-03-11T10:53:04.450Z,3.60
2023-03-11T10:55:32.496Z,3.28
2023-03-11T10:58:05.979Z,4.30
2023-03-11T11:00:33.089Z,3.67
2023-03-11T11:03:00.668Z,4.40
2023-03-11T11:05:30.200Z,5.22
2023-03-11T11:08:05.873Z,10.93
2023-03-11T11:10:35.043Z,11.73
2023-03-11T11:13:02.967Z,16.15
2023-03-11T11:15:32.090Z,4.20
2023-03-11T11:18:01.526Z,4.47
2023-03-11T11:20:29.334Z,5.47
2023-03-11T11:22:57.905Z,5.22
2023-03-11T11:25:27.257Z,3.63
2023-03-11T11:27:57.218Z,2.85
2023-03-11T11:30:24.909Z,4.03
2023-03-11T11:32:51.773Z,2.95
2023-03-11T11:35:18.622Z,3.58
2023-03-11T11:37:48.554Z,3.58
2023-03-11T11:40:25.322Z,3.60
2023-03-11T11:42:56.825Z,4.03
2023-03-11T11:45:31.189Z,3.13
2023-03-11T11:48:00.787Z,3.92
2023-03-11T11:50:32.836Z,3.63
2023-03-11T11:53:09.597Z,3.25
2023-03-11T11:55:40.018Z,3.25
2023-03-11T11:58:10.493Z,2.22
2023-03-11T12:00:47.324Z,3.05
2023-03-11T12:03:43.806Z,2.67
2023-03-11T12:06:20.380Z,5.57
2023-03-11T12:08:55.730Z,3.35
2023-03-11T12:11:26.261Z,2.45
2023-03-11T12:14:02.141Z,3.92
2023-03-11T12:16:38.197Z,3.03
2023-03-11T12:19:14.677Z,2.75
2023-03-11T12:21:57.591Z,2.78
2023-03-11T12:24:45.762Z,4.55
2023-03-11T12:27:19.756Z,3.03
2023-03-11T12:29:51.710Z,3.75
2023-03-11T12:32:24.864Z,3.17
2023-03-11T12:34:51.719Z,4.40
2023-03-11T12:37:22.880Z,3.22
2023-03-11T12:39:49.524Z,2.30
2023-03-11T12:42:19.214Z,2.97
2023-03-11T12:44:49.151Z,2.80
2023-03-11T12:47:25.609Z,1.50
2023-03-11T12:49:54.398Z,1.83
2023-03-11T12:52:28.914Z,3.15
2023-03-11T12:55:25.208Z,2.78
2023-03-11T12:58:00.994Z,3.50
2023-03-11T13:00:44.574Z,5.55
2023-03-11T13:03:34.810Z,4.40
2023-03-11T13:06:18.822Z,9.77
2023-03-11T13:08:48.331Z,11.77
2023-03-11T13:11:37.318Z,13.23
2023-03-11T13:14:22.064Z,18.75
2023-03-11T13:16:50.480Z,7.63
2023-03-11T13:19:46.358Z,5.57
2023-03-11T13:22:41.462Z,7.50
2023-03-11T13:25:31.165Z,3.53
2023-03-11T13:28:11.854Z,2.35
2023-03-11T13:30:46.583Z,3.78
2023-03-11T13:33:25.219Z,4.18
2023-03-11T13:36:06.771Z,2.60
2023-03-11T13:38:45.361Z,2.50
2023-03-11T13:41:15.895Z,3.65
2023-03-11T13:43:46.749Z,2.33
2023-03-11T13:46:24.177Z,2.95
2023-03-11T13:49:00.835Z,2.05
2023-03-11T13:51:36.344Z,2.80
2023-03-11T13:54:08.332Z,2.70
2023-03-11T13:56:43.293Z,2.00
2023-03-11T13:59:16.468Z,3.70
2023-03-11T14:01:49.002Z,2.03
2023-03-11T14:04:23.816Z,1.50
2023-03-11T14:06:51.567Z,4.13
2023-03-11T14:09:21.358Z,4.43
2023-03-11T14:11:48.322Z,2.05
2023-03-11T14:14:31.920Z,3.35
2023-03-11T14:16:59.950Z,2.47
2023-03-11T14:19:27.985Z,2.33
2023-03-11T14:21:54.794Z,2.90
2023-03-11T14:24:24.950Z,3.30
2023-03-11T14:26:52.349Z,3.55
2023-03-11T14:29:20.923Z,1.77
2023-03-11T14:31:48.042Z,2.17
2023-03-11T14:34:16.898Z,3.05
2023-03-11T14:36:46.692Z,2.40
2023-03-11T14:39:28.667Z,3.05
2023-03-11T14:41:59.479Z,3.13
2023-03-11T14:44:27.419Z,3.97
2023-03-11T14:46:59.400Z,2.92
2023-03-11T14:49:26.289Z,3.33
2023-03-11T14:51:59.502Z,3.70
2023-03-11T14:54:29.498Z,3.78
2023-03-11T14:57:01.597Z,5.43
2023-03-11T14:59:31.211Z,3.10
2023-03-11T15:02:13.235Z,3.90
2023-03-11T15:04:40.787Z,2.45
2023-03-11T15:07:08.780Z,2.38
2023-03-11T15:09:40.459Z,4.20
2023-03-11T15:12:08.052Z,3.47
2023-03-11T15:14:36.617Z,2.47
2023-03-11T15:17:33.006Z,2.67
2023-03-11T15:20:02.317Z,3.78
2023-03-11T15:22:35.598Z,1.90
2023-03-11T15:25:03.210Z,3.35
2023-03-11T15:27:32.210Z,5.50
2023-03-11T15:30:00.104Z,3.42
2023-03-11T15:32:38.639Z,3.78
2023-03-11T15:35:15.944Z,2.92
2023-03-11T15:37:45.355Z,3.28
2023-03-11T15:40:17.936Z,3.78
2023-03-11T15:42:44.979Z,3.70
2023-03-11T15:45:16.283Z,2.85
2023-03-11T15:47:43.348Z,2.22
2023-03-11T15:50:24.982Z,2.35
2023-03-11T15:52:55.532Z,5.53
2023-03-11T15:55:22.977Z,4.60
2023-03-11T15:57:51.461Z,2.78
2023-03-11T16:00:21.988Z,2.75
2023-03-11T16:02:49.580Z,2.20
2023-03-11T16:05:18.298Z,3.35
2023-03-11T16:07:45.244Z,2.17
2023-03-11T16:10:15.506Z,2.28
2023-03-11T16:12:42.662Z,4.45
2023-03-11T16:15:18.985Z,2.03
2023-03-11T16:17:49.774Z,3.75
2023-03-11T16:20:17.325Z,4.85
2023-03-11T16:22:44.339Z,6.32
2023-03-11T16:25:20.374Z,4.57
2023-03-11T16:27:47.343Z,2.70
2023-03-11T16:30:14.600Z,4.95
2023-03-11T16:32:41.274Z,4.18
2023-03-11T16:35:08.767Z,2.53
2023-03-11T16:37:35.453Z,3.30
2023-03-11T16:40:02.266Z,5.05
2023-03-11T16:42:30.529Z,6.53
2023-03-11T16:44:57.214Z,6.60
2023-03-11T16:47:23.849Z,5.28
2023-03-11T16:49:50.503Z,3.60
2023-03-11T16:52:17.209Z,4.75
2023-03-11T16:54:43.891Z,6.32
2023-03-11T16:57:10.512Z,6.88
2023-03-11T16:59:38.539Z,7.25
2023-03-11T17:02:05.352Z,5.78
2023-03-11T17:04:32.027Z,5.35
2023-03-11T17:06:58.826Z,7.07
2023-03-11T17:09:25.493Z,12.07
2023-03-11T17:11:52.208Z,6.57
2023-03-11T17:14:19.022Z,6.65
2023-03-11T17:16:47.060Z,6.82
2023-03-11T17:19:13.810Z,5.83
2023-03-11T17:21:40.448Z,9.43
2023-03-11T17:24:08.680Z,8.65
2023-03-11T17:26:35.387Z,8.10
2023-03-11T17:29:02.381Z,6.30
2023-03-11T17:31:29.177Z,5.35
2023-03-11T17:33:57.987Z,6.72
2023-03-11T17:36:25.538Z,5.97
2023-03-11T17:38:53.725Z,6.00
2023-03-11T17:41:21.202Z,6.55
2023-03-11T17:43:50.966Z,7.40
2023-03-11T17:46:19.682Z,6.80
2023-03-11T17:48:48.095Z,8.23
2023-03-11T17:51:18.584Z,9.45
2023-03-11T17:53:46.353Z,9.77
2023-03-11T17:56:14.715Z,8.75
2023-03-11T17:58:41.737Z,7.25
2023-03-11T18:01:12.398Z,9.63
2023-03-11T18:03:39.077Z,13.55
2023-03-11T18:06:06.702Z,17.83
2023-03-11T18:08:35.593Z,18.92
2023-03-11T18:11:04.337Z,22.50
2023-03-11T18:13:31.433Z,16.45
2023-03-11T18:15:58.895Z,19.40
2023-03-11T18:18:26.085Z,14.63
2023-03-11T18:20:52.877Z,15.03
2023-03-11T18:23:19.616Z,13.38
2023-03-11T18:25:52.091Z,16.77
2023-03-11T18:28:18.824Z,15.55
2023-03-11T18:30:45.544Z,17.83
2023-03-11T18:33:12.603Z,17.83
2023-03-11T18:35:39.407Z,16.98
2023-03-11T18:38:06.102Z,19.55
2023-03-11T18:40:32.735Z,23.08
2023-03-11T18:43:00.813Z,23.50
2023-03-11T18:45:27.446Z,21.87
2023-03-11T18:47:54.130Z,22.33
2023-03-11T18:50:21.093Z,29.50
2023-03-11T18:52:50.429Z,33.70
2023-03-11T18:55:17.579Z,29.88
2023-03-11T18:57:44.392Z,33.97
2023-03-11T19:00:13.652Z,28.67
2023-03-11T19:02:40.279Z,27.73
2023-03-11T19:05:07.729Z,23.33
2023-03-11T19:07:34.654Z,24.30
2023-03-11T19:10:01.330Z,19.20
2023-03-11T19:12:27.998Z,13.32
2023-03-11T19:14:54.677Z,15.00
2023-03-11T19:17:22.732Z,16.55
2023-03-11T19:19:49.394Z,13.30
2023-03-11T19:22:16.057Z,8.27
2023-03-11T19:24:42.722Z,4.47
2023-03-11T19:27:09.391Z,5.43
2023-03-11T19:29:36.069Z,3.70
2023-03-11T19:32:03.669Z,3.55
2023-03-11T19:34:31.929Z,4.33
2023-03-11T19:36:58.529Z,5.93
2023-03-11T19:39:25.203Z,6.93
2023-03-11T19:41:51.842Z,6.70
2023-03-11T19:44:18.503Z,7.85
2023-03-11T19:46:45.322Z,8.53
2023-03-11T19:49:11.970Z,7.07
2023-03-11T19:51:49.693Z,7.25
2023-03-11T19:54:17.327Z,5.97
2023-03-11T19:56:44.066Z,8.63
2023-03-11T19:59:10.901Z,5.20
2023-03-11T20:01:37.642Z,7.20
2023-03-11T20:04:05.949Z,6.13
2023-03-11T20:06:32.665Z,4.72
2023-03-11T20:09:00.852Z,4.55
2023-03-11T20:11:27.549Z,4.80
2023-03-11T20:13:54.287Z,3.72
2023-03-11T20:16:20.966Z,7.25
2023-03-11T20:18:49.168Z,4.32
2023-03-11T20:21:16.133Z,4.63
2023-03-11T20:23:42.798Z,3.07
2023-03-11T20:26:13.845Z,5.30
2023-03-11T20:28:40.621Z,7.93
2023-03-11T20:31:09.836Z,4.63
2023-03-11T20:33:37.523Z,6.82
2023-03-11T20:36:05.783Z,7.00
2023-03-11T20:38:32.591Z,8.35
2023-03-11T20:40:59.261Z,10.40
2023-03-11T20:43:27.504Z,11.82
2023-03-11T20:45:54.183Z,11.88
2023-03-11T20:48:20.860Z,8.30
2023-03-11T20:50:47.585Z,10.50
2023-03-11T20:53:14.894Z,10.48
2023-03-11T20:55:41.525Z,11.45
2023-03-11T20:58:08.359Z,12.02
2023-03-11T21:00:36.595Z,10.33
2023-03-11T21:03:03.446Z,12.48
2023-03-11T21:05:34.552Z,11.02
2023-03-11T21:08:01.326Z,12.02
2023-03-11T21:10:29.205Z,15.13
2023-03-11T21:12:56.016Z,12.70
2023-03-11T21:15:22.953Z,15.18
2023-03-11T21:17:51.263Z,12.20
2023-03-11T21:20:18.095Z,14.30
2023-03-11T21:22:44.769Z,16.88
2023-03-11T21:25:11.452Z,17.07
2023-03-11T21:27:38.176Z,14.45
2023-03-11T21:30:05.906Z,14.60
2023-03-11T21:32:32.785Z,13.57
2023-03-11T21:35:01.514Z,16.38
2023-03-11T21:37:29.083Z,12.53
2023-03-11T21:39:56.042Z,15.75
2023-03-11T21:42:23.195Z,13.80
2023-03-11T21:44:49.928Z,14.85
2023-03-11T21:47:16.644Z,15.60
2023-03-11T21:49:43.559Z,14.60
2023-03-11T21:52:11.835Z,13.30
2023-03-11T21:54:38.589Z,15.45
2023-03-11T21:57:05.355Z,12.88
2023-03-11T21:59:32.096Z,12.07
2023-03-11T22:01:58.946Z,14.10
2023-03-11T22:04:25.752Z,14.10
2023-03-11T22:06:52.453Z,12.93
2023-03-11T22:09:20.615Z,14.68
2023-03-11T22:11:48.776Z,14.23
2023-03-11T22:14:15.557Z,11.47
2023-03-11T22:16:42.382Z,12.57
2023-03-11T22:19:09.179Z,15.45
2023-03-11T22:21:35.939Z,11.55
2023-03-11T22:24:02.656Z,14.73
2023-03-11T22:26:30.676Z,14.80
2023-03-11T22:28:57.542Z,11.88
2023-03-11T22:31:24.431Z,15.07
2023-03-11T22:33:51.315Z,13.07
2023-03-11T22:36:18.105Z,15.85
2023-03-11T22:38:44.785Z,16.47
2023-03-11T22:41:12.374Z,13.88
2023-03-11T22:43:40.457Z,15.23
2023-03-11T22:46:07.878Z,13.77
2023-03-11T22:48:34.802Z,14.68
2023-03-11T22:51:01.467Z,13.70
2023-03-11T22:53:28.194Z,15.00
2023-03-11T22:55:54.855Z,14.00
2023-03-11T22:58:21.612Z,13.80
2023-03-11T23:00:49.663Z,15.13
2023-03-11T23:03:16.557Z,15.67
2023-03-11T23:05:43.279Z,11.52
2023-03-11T23:08:11.406Z,12.20
2023-03-11T23:10:40.222Z,12.57
2023-03-11T23:13:06.954Z,11.82
2023-03-11T23:15:33.744Z,11.10
2023-03-11T23:18:01.720Z,12.82
2023-03-11T23:20:28.471Z,11.50
2023-03-11T23:22:55.333Z,12.75
2023-03-11T23:25:22.211Z,13.10
2023-03-11T23:27:48.854Z,12.53
2023-03-11T23:30:16.816Z,17.75
2023-03-11T23:32:43.908Z,14.90
2023-03-11T23:35:13.026Z,14.23
2023-03-11T23:37:39.882Z,13.57
2023-03-11T23:40:07.946Z,16.60
2023-03-11T23:42:35.435Z,10.65
2023-03-11T23:45:02.102Z,10.38
2023-03-11T23:47:28.848Z,11.38
2023-03-11T23:49:55.697Z,9.07
2023-03-11T23:52:23.857Z,9.57
2023-03-11T23:54:50.606Z,10.48
2023-03-11T23:57:17.640Z,14.50
2023-03-11T23:59:45.079Z,12.75
